Terminal Aerodrome Forecast
Issued by NWS Wakefield, VA

Home | Current Version | Previous Version | Text Only | Print | Product List | Glossary On
Versions: 1 2 3 4 5 6 7 8 9 10 11 12 13 14 15 16 17 18 19 20
365
FTUS41 KAKQ 031720
TAFRIC
TAF
KRIC 031720Z 0318/0418 32007KT P6SM SKC
     FM040000 VRB03KT P6SM SCT250
     FM041200 02004KT P6SM BKN200=

USA.gov is the U.S. government's official web portal to all federal, state and local government web resources and services.